PWSweather.com
Personal Weather Stations
Station Observations
CANDIOTINO
Barrio Candioti Norte, Santa FeAR 3000

Barrio Candioti NorteSanta FeAR 3000

Lat: -31.632778, Lon: -60.695556

Elevation: 69

Station Type: WH-1081

http://www.eltiempoensantafe.com.ar

High Low Average
Temperature 71.6°F22.0°F 57.7°F14.3°F 62.1°F16.7°F
Dew Point 58.0°F14.4°F 51.1°F10.6°F 54.6°F12.6°F
Winds 6.9 mph -11.1 mph - Calm Calm 2.5 mph 4.0 mph
Wind Gusts 11.4 mph18.3 mph 0.7 mph1.1 mph 6.3 mph10.1 mph
Humidity 85% 61% 77%
Pressure 30.07 in1018.30 in 29.97 in1014.90 in -
Precipitation 0.21 in5.30 in - -
Hour Temp Dew Point Humidity Winds Wind Gusts Pressure Precip Precip Rate Daily Precip Total
12:00 AM 61.5°F16.4°C 53.5°F11.9°C 75% 0.7 mph S1.1 kmh S 3.8 mph6.1 kmh 30.00 in1015.9 mb 0.00 in0.0 mm 0.00 in0.0 mm 0.00 in0.0 mm
12:15 AM 61.3°F16.3°C 53.4°F11.9°C 75% 2.2 mph S3.5 kmh S 3.8 mph6.1 kmh 30.01 in1016.3 mb 0.00 in0.0 mm 0.00 in0.0 mm 0.00 in0.0 mm
12:30 AM 61.5°F16.4°C 53.2°F11.8°C 74% 2.2 mph S3.5 kmh S 5.4 mph8.7 kmh 30.02 in1016.6 mb 0.00 in0.0 mm 0.00 in0.0 mm 0.00 in0.0 mm
12:45 AM 61.5°F16.4°C 52.4°F11.3°C 72% 4.5 mph S7.2 kmh S 6.9 mph11.1 kmh 30.01 in1016.3 mb 0.00 in0.0 mm 0.00 in0.0 mm 0.00 in0.0 mm
01:00 AM 61.3°F16.3°C 52.3°F11.3°C 72% 2.2 mph S3.5 kmh S 5.4 mph8.7 kmh 30.02 in1016.6 mb 0.00 in0.0 mm 0.00 in0.0 mm 0.00 in0.0 mm
01:15 AM 61.2°F16.2°C 52.1°F11.2°C 72% 1.6 mph S2.6 kmh S 6.0 mph9.7 kmh 30.02 in1016.6 mb 0.00 in0.0 mm 0.00 in0.0 mm 0.00 in0.0 mm
01:30 AM 61.2°F16.2°C 52.1°F11.2°C 72% 1.6 mph SSE2.6 kmh SSE 7.6 mph12.2 kmh 30.01 in1016.3 mb 0.00 in0.0 mm 0.00 in0.0 mm 0.00 in0.0 mm
01:45 AM 60.8°F16.0°C 51.7°F10.9°C 72% 1.6 mph SE2.6 kmh SE 7.6 mph12.2 kmh 30.01 in1016.3 mb 0.00 in0.0 mm 0.00 in0.0 mm 0.00 in0.0 mm
02:00 AM 60.6°F15.9°C 51.9°F11.1°C 73% 1.6 mph SE2.6 kmh SE 6.9 mph11.1 kmh 30.00 in1015.9 mb 0.00 in0.0 mm 0.00 in0.0 mm 0.00 in0.0 mm
02:15 AM 60.4°F15.8°C 52.1°F11.2°C 74% 1.6 mph S2.6 kmh S 5.4 mph8.7 kmh 30.01 in1016.3 mb 0.00 in0.0 mm 0.00 in0.0 mm 0.00 in0.0 mm
02:30 AM 60.3°F15.7°C 52.3°F11.3°C 75% Calm Calm 4.5 mph7.2 kmh 30.01 in1016.3 mb 0.00 in0.0 mm 0.00 in0.0 mm 0.00 in0.0 mm
02:45 AM 60.1°F15.6°C 52.5°F11.4°C 76% Calm Calm 2.2 mph3.5 kmh 30.00 in1015.9 mb 0.00 in0.0 mm 0.00 in0.0 mm 0.00 in0.0 mm
03:00 AM 60.1°F15.6°C 52.9°F11.6°C 77% 0.7 mph SE1.1 kmh SE 4.5 mph7.2 kmh 30.00 in1015.9 mb 0.00 in0.0 mm 0.00 in0.0 mm 0.00 in0.0 mm
03:15 AM 59.9°F15.5°C 52.7°F11.5°C 77% Calm Calm 2.2 mph3.5 kmh 30.02 in1016.6 mb 0.00 in0.0 mm 0.00 in0.0 mm 0.00 in0.0 mm
03:30 AM 59.9°F15.5°C 53.0°F11.7°C 78% Calm Calm 0.7 mph1.1 kmh 30.02 in1016.6 mb 0.00 in0.0 mm 0.00 in0.0 mm 0.00 in0.0 mm
03:45 AM 59.9°F15.5°C 53.4°F11.9°C 79% 1.6 mph S2.6 kmh S 2.2 mph3.5 kmh 30.01 in1016.3 mb 0.00 in0.0 mm 0.00 in0.0 mm 0.00 in0.0 mm
04:00 AM 60.1°F15.6°C 53.2°F11.8°C 78% 2.2 mph SSE3.5 kmh SSE 4.5 mph7.2 kmh 30.00 in1015.9 mb 0.00 in0.0 mm 0.00 in0.0 mm 0.00 in0.0 mm
04:15 AM 60.3°F15.7°C 52.7°F11.5°C 76% 0.7 mph S1.1 kmh S 3.1 mph5.0 kmh 30.02 in1016.6 mb 0.00 in0.0 mm 0.00 in0.0 mm 0.00 in0.0 mm
04:30 AM 60.1°F15.6°C 53.2°F11.8°C 78% 0.7 mph SSE1.1 kmh SSE 2.2 mph3.5 kmh 30.02 in1016.6 mb 0.00 in0.0 mm 0.00 in0.0 mm 0.00 in0.0 mm
04:45 AM 60.1°F15.6°C 52.9°F11.6°C 77% 3.1 mph S5.0 kmh S 4.5 mph7.2 kmh 30.01 in1016.3 mb 0.00 in0.0 mm 0.00 in0.0 mm 0.00 in0.0 mm
05:00 AM 59.9°F15.5°C 52.3°F11.3°C 76% 2.2 mph SE3.5 kmh SE 6.9 mph11.1 kmh 30.02 in1016.6 mb 0.00 in0.0 mm 0.00 in0.0 mm 0.00 in0.0 mm
05:15 AM 59.9°F15.5°C 52.7°F11.5°C 77% 3.1 mph SSE5.0 kmh SSE 6.9 mph11.1 kmh 30.02 in1016.6 mb 0.00 in0.0 mm 0.00 in0.0 mm 0.00 in0.0 mm
05:30 AM 59.7°F15.4°C 53.2°F11.8°C 79% 3.8 mph S6.1 kmh S 5.4 mph8.7 kmh 30.02 in1016.6 mb 0.00 in0.0 mm 0.00 in0.0 mm 0.00 in0.0 mm
05:45 AM 59.5°F15.3°C 53.4°F11.9°C 80% 3.1 mph SSE5.0 kmh SSE 6.0 mph9.7 kmh 30.02 in1016.6 mb 0.00 in0.0 mm 0.00 in0.0 mm 0.00 in0.0 mm
06:00 AM 59.4°F15.2°C 52.5°F11.4°C 78% 3.8 mph SSE6.1 kmh SSE 8.3 mph13.4 kmh 30.02 in1016.6 mb 0.00 in0.0 mm 0.00 in0.0 mm 0.00 in0.0 mm
06:15 AM 59.2°F15.1°C 52.0°F11.1°C 77% 3.1 mph SSE5.0 kmh SSE 7.6 mph12.2 kmh 30.03 in1016.9 mb 0.00 in0.0 mm 0.00 in0.0 mm 0.00 in0.0 mm
06:30 AM 59.2°F15.1°C 52.0°F11.1°C 77% 3.8 mph SSE6.1 kmh SSE 7.6 mph12.2 kmh 30.02 in1016.6 mb 0.00 in0.0 mm 0.00 in0.0 mm 0.00 in0.0 mm
06:45 AM 59.0°F15.0°C 51.8°F11.0°C 77% 5.4 mph SSE8.7 kmh SSE 7.6 mph12.2 kmh 30.03 in1016.9 mb 0.00 in0.0 mm 0.00 in0.0 mm 0.00 in0.0 mm
07:00 AM 58.3°F14.6°C 51.8°F11.0°C 79% 2.2 mph SSE3.5 kmh SSE 10.7 mph17.2 kmh 30.03 in1016.9 mb 0.00 in0.0 mm 0.00 in0.0 mm 0.00 in0.0 mm
07:15 AM 57.9°F14.4°C 51.5°F10.8°C 79% 3.1 mph SE5.0 kmh SE 4.5 mph7.2 kmh 30.04 in1017.3 mb 0.00 in0.0 mm 0.00 in0.0 mm 0.00 in0.0 mm
07:30 AM 57.9°F14.4°C 51.8°F11.0°C 80% 3.8 mph S6.1 kmh S 6.0 mph9.7 kmh 30.04 in1017.3 mb 0.00 in0.0 mm 0.00 in0.0 mm 0.00 in0.0 mm
07:45 AM 57.7°F14.3°C 51.3°F10.7°C 79% 2.2 mph SE3.5 kmh SE 5.4 mph8.7 kmh 30.05 in1017.6 mb 0.00 in0.0 mm 0.00 in0.0 mm 0.00 in0.0 mm
08:00 AM 57.9°F14.4°C 51.5°F10.8°C 79% 3.8 mph SE6.1 kmh SE 6.9 mph11.1 kmh 30.05 in1017.6 mb 0.00 in0.0 mm 0.00 in0.0 mm 0.00 in0.0 mm
08:15 AM 58.8°F14.9°C 52.7°F11.5°C 80% 3.1 mph SSE5.0 kmh SSE 6.9 mph11.1 kmh 30.05 in1017.6 mb 0.00 in0.0 mm 0.00 in0.0 mm 0.00 in0.0 mm
08:30 AM 60.3°F15.7°C 52.3°F11.3°C 75% 3.8 mph SE6.1 kmh SE 8.3 mph13.4 kmh 30.05 in1017.6 mb 0.00 in0.0 mm 0.00 in0.0 mm 0.00 in0.0 mm
08:45 AM 59.4°F15.2°C 51.1°F10.6°C 74% 4.5 mph SE7.2 kmh SE 10.7 mph17.2 kmh 30.05 in1017.6 mb 0.00 in0.0 mm 0.00 in0.0 mm 0.00 in0.0 mm
09:00 AM 59.0°F15.0°C 51.5°F10.8°C 76% 3.1 mph SE5.0 kmh SE 10.7 mph17.2 kmh 30.06 in1017.9 mb 0.00 in0.0 mm 0.00 in0.0 mm 0.00 in0.0 mm
09:15 AM 58.6°F14.8°C 51.8°F11.0°C 78% 1.6 mph SE2.6 kmh SE 6.9 mph11.1 kmh 30.07 in1018.3 mb 0.00 in0.0 mm 0.00 in0.0 mm 0.00 in0.0 mm
09:30 AM 58.5°F14.7°C 53.0°F11.7°C 82% 2.2 mph S3.5 kmh S 6.9 mph11.1 kmh 30.07 in1018.3 mb 0.01 in0.3 mm 0.04 in1.0 mm 0.01 in0.3 mm
09:45 AM 58.3°F14.6°C 53.5°F11.9°C 84% 2.2 mph SSE3.5 kmh SSE 6.9 mph11.1 kmh 30.07 in1018.3 mb 0.01 in0.3 mm 0.00 in0.0 mm 0.01 in0.3 mm
10:00 AM 58.6°F14.8°C 53.8°F12.1°C 84% 1.6 mph SSE2.6 kmh SSE 6.0 mph9.7 kmh 30.07 in1018.3 mb 0.02 in0.5 mm 0.01 in0.3 mm 0.02 in0.5 mm
10:15 AM 59.0°F15.0°C 53.2°F11.8°C 81% 4.5 mph SSE7.2 kmh SSE 7.6 mph12.2 kmh 30.07 in1018.3 mb 0.02 in0.5 mm 0.00 in0.0 mm 0.02 in0.5 mm
10:30 AM 59.0°F15.0°C 53.9°F12.2°C 83% 2.2 mph SSE3.5 kmh SSE 6.0 mph9.7 kmh 30.07 in1018.3 mb 0.01 in0.3 mm 0.00 in0.0 mm 0.02 in0.5 mm
10:45 AM 58.6°F14.8°C 54.2°F12.3°C 85% 3.8 mph SSE6.1 kmh SSE 7.6 mph12.2 kmh 30.06 in1017.9 mb 0.04 in1.0 mm 0.12 in3.0 mm 0.05 in1.3 mm
11:00 AM 59.2°F15.1°C 54.0°F12.2°C 83% 4.5 mph SE7.2 kmh SE 8.3 mph13.4 kmh 30.06 in1017.9 mb 0.02 in0.5 mm 0.00 in0.0 mm 0.05 in1.3 mm
11:15 AM 59.5°F15.3°C 54.4°F12.4°C 83% 4.5 mph SE7.2 kmh SE 6.9 mph11.1 kmh 30.06 in1017.9 mb 0.02 in0.5 mm 0.00 in0.0 mm 0.05 in1.3 mm
11:30 AM 60.1°F15.6°C 54.6°F12.6°C 82% 3.1 mph SSE5.0 kmh SSE 8.3 mph13.4 kmh 30.06 in1017.9 mb 0.02 in0.5 mm 0.00 in0.0 mm 0.05 in1.3 mm
11:45 AM 61.3°F16.3°C 54.1°F12.3°C 77% 6.0 mph SSE9.7 kmh SSE 9.2 mph14.8 kmh 30.06 in1017.9 mb 0.00 in0.0 mm 0.00 in0.0 mm 0.05 in1.3 mm
12:00 PM 61.0°F16.1°C 54.1°F12.3°C 78% 3.8 mph SSE6.1 kmh SSE 8.3 mph13.4 kmh 30.04 in1017.3 mb 0.00 in0.0 mm 0.00 in0.0 mm 0.05 in1.3 mm
12:15 PM 61.2°F16.2°C 54.6°F12.6°C 79% 4.5 mph SSE7.2 kmh SSE 7.6 mph12.2 kmh 30.04 in1017.3 mb 0.00 in0.0 mm 0.00 in0.0 mm 0.05 in1.3 mm
12:30 PM 61.2°F16.2°C 54.6°F12.6°C 79% 3.8 mph SSE6.1 kmh SSE 8.3 mph13.4 kmh 30.03 in1016.9 mb 0.00 in0.0 mm 0.00 in0.0 mm 0.05 in1.3 mm
12:45 PM 61.0°F16.1°C 54.8°F12.7°C 80% 5.4 mph SSE8.7 kmh SSE 8.3 mph13.4 kmh 30.04 in1017.3 mb 0.00 in0.0 mm 0.00 in0.0 mm 0.05 in1.3 mm
01:00 PM 61.0°F16.1°C 55.5°F13.1°C 82% 1.6 mph SSE2.6 kmh SSE 8.3 mph13.4 kmh 30.03 in1016.9 mb 0.00 in0.0 mm 0.00 in0.0 mm 0.05 in1.3 mm
01:15 PM 61.7°F16.5°C 55.5°F13.1°C 80% 1.6 mph SSE2.6 kmh SSE 8.3 mph13.4 kmh 30.02 in1016.6 mb 0.00 in0.0 mm 0.00 in0.0 mm 0.05 in1.3 mm
01:30 PM 62.2°F16.8°C 55.0°F12.8°C 77% 2.2 mph SE3.5 kmh SE 7.6 mph12.2 kmh 30.02 in1016.6 mb 0.00 in0.0 mm 0.00 in0.0 mm 0.05 in1.3 mm
01:45 PM 62.4°F16.9°C 55.1°F12.8°C 77% 3.8 mph SE6.1 kmh SE 9.2 mph14.8 kmh 30.01 in1016.3 mb 0.00 in0.0 mm 0.00 in0.0 mm 0.05 in1.3 mm
02:00 PM 63.7°F17.6°C 56.0°F13.3°C 76% 0.7 mph SE1.1 kmh SE 6.0 mph9.7 kmh 30.01 in1016.3 mb 0.00 in0.0 mm 0.00 in0.0 mm 0.05 in1.3 mm
02:15 PM 63.5°F17.5°C 55.5°F13.1°C 75% 2.2 mph SE3.5 kmh SE 7.6 mph12.2 kmh 29.99 in1015.6 mb 0.00 in0.0 mm 0.00 in0.0 mm 0.05 in1.3 mm
02:30 PM 63.3°F17.4°C 55.6°F13.1°C 76% 2.2 mph SE3.5 kmh SE 7.6 mph12.2 kmh 30.00 in1015.9 mb 0.00 in0.0 mm 0.00 in0.0 mm 0.05 in1.3 mm
02:45 PM 64.4°F18.0°C 56.7°F13.7°C 76% 4.5 mph SE7.2 kmh SE 7.6 mph12.2 kmh 29.99 in1015.6 mb 0.00 in0.0 mm 0.00 in0.0 mm 0.05 in1.3 mm
03:00 PM 66.6°F19.2°C 58.0°F14.4°C 74% 3.1 mph E5.0 kmh E 6.9 mph11.1 kmh 29.98 in1015.2 mb 0.00 in0.0 mm 0.00 in0.0 mm 0.05 in1.3 mm
03:15 PM 65.3°F18.5°C 56.4°F13.6°C 73% 1.6 mph SE2.6 kmh SE 11.4 mph18.3 kmh 29.98 in1015.2 mb 0.01 in0.3 mm 0.04 in1.0 mm 0.06 in1.5 mm
03:30 PM 66.0°F18.9°C 57.1°F13.9°C 73% 3.1 mph SE5.0 kmh SE 10.7 mph17.2 kmh 29.97 in1014.9 mb 0.01 in0.3 mm 0.00 in0.0 mm 0.06 in1.5 mm
03:45 PM 67.1°F19.5°C 57.0°F13.9°C 70% 4.5 mph SE7.2 kmh SE 10.7 mph17.2 kmh 29.98 in1015.2 mb 0.01 in0.3 mm 0.00 in0.0 mm 0.06 in1.5 mm
04:00 PM 68.7°F20.4°C 56.9°F13.8°C 66% 4.5 mph ESE7.2 kmh ESE 8.3 mph13.4 kmh 29.98 in1015.2 mb 0.01 in0.3 mm 0.00 in0.0 mm 0.06 in1.5 mm
04:15 PM 68.7°F20.4°C 56.9°F13.8°C 66% 1.6 mph ESE2.6 kmh ESE 5.4 mph8.7 kmh 29.99 in1015.6 mb 0.00 in0.0 mm 0.00 in0.0 mm 0.06 in1.5 mm
04:30 PM 71.6°F22.0°C 57.5°F14.2°C 61% 2.2 mph ESE3.5 kmh ESE 6.9 mph11.1 kmh 29.98 in1015.2 mb 0.00 in0.0 mm 0.00 in0.0 mm 0.06 in1.5 mm
04:45 PM 69.8°F21.0°C 55.8°F13.2°C 61% 6.9 mph ESE11.1 kmh ESE 9.8 mph15.8 kmh 29.98 in1015.2 mb 0.00 in0.0 mm 0.00 in0.0 mm 0.06 in1.5 mm
05:00 PM 70.0°F21.1°C 56.4°F13.6°C 62% 3.1 mph SSE5.0 kmh SSE 9.2 mph14.8 kmh 29.98 in1015.2 mb 0.00 in0.0 mm 0.00 in0.0 mm 0.06 in1.5 mm
05:15 PM 71.2°F21.8°C 57.6°F14.2°C 62% 3.8 mph SE6.1 kmh SE 6.9 mph11.1 kmh 29.97 in1014.9 mb 0.00 in0.0 mm 0.00 in0.0 mm 0.06 in1.5 mm
05:30 PM 70.3°F21.3°C 56.7°F13.7°C 62% 2.2 mph SE3.5 kmh SE 7.6 mph12.2 kmh 29.97 in1014.9 mb 0.00 in0.0 mm 0.00 in0.0 mm 0.06 in1.5 mm
05:45 PM 70.3°F21.3°C 57.2°F14.0°C 63% 5.4 mph SE8.7 kmh SE 6.9 mph11.1 kmh 29.98 in1015.2 mb 0.00 in0.0 mm 0.00 in0.0 mm 0.06 in1.5 mm
06:00 PM 69.6°F20.9°C 56.9°F13.8°C 64% 2.2 mph SE3.5 kmh SE 6.9 mph11.1 kmh 29.98 in1015.2 mb 0.00 in0.0 mm 0.00 in0.0 mm 0.06 in1.5 mm
06:15 PM 69.1°F20.6°C 56.8°F13.8°C 65% 3.1 mph SE5.0 kmh SE 5.4 mph8.7 kmh 29.97 in1014.9 mb 0.00 in0.0 mm 0.00 in0.0 mm 0.06 in1.5 mm
06:30 PM 65.7°F18.7°C 56.4°F13.6°C 72% 0.7 mph SE1.1 kmh SE 3.1 mph5.0 kmh 29.98 in1015.2 mb 0.00 in0.0 mm 0.00 in0.0 mm 0.06 in1.5 mm
06:45 PM 64.4°F18.0°C 56.3°F13.5°C 75% 0.7 mph SE1.1 kmh SE 3.1 mph5.0 kmh 29.98 in1015.2 mb 0.00 in0.0 mm 0.00 in0.0 mm 0.06 in1.5 mm
07:00 PM 63.9°F17.7°C 56.5°F13.6°C 77% Calm Calm 3.1 mph5.0 kmh 29.98 in1015.2 mb 0.00 in0.0 mm 0.00 in0.0 mm 0.06 in1.5 mm
07:15 PM 63.5°F17.5°C 56.9°F13.8°C 79% 0.7 mph SE1.1 kmh SE 1.6 mph2.6 kmh 30.00 in1015.9 mb 0.00 in0.0 mm 0.00 in0.0 mm 0.06 in1.5 mm
07:30 PM 63.3°F17.4°C 57.4°F14.1°C 81% 1.6 mph SSE2.6 kmh SSE 3.1 mph5.0 kmh 30.00 in1015.9 mb 0.00 in0.0 mm 0.00 in0.0 mm 0.06 in1.5 mm
07:45 PM 63.5°F17.5°C 57.2°F14.0°C 80% 0.7 mph SE1.1 kmh SE 3.1 mph5.0 kmh 30.01 in1016.3 mb 0.00 in0.0 mm 0.00 in0.0 mm 0.06 in1.5 mm
08:00 PM 63.3°F17.4°C 57.1°F13.9°C 80% Calm Calm 3.1 mph5.0 kmh 30.02 in1016.6 mb 0.00 in0.0 mm 0.00 in0.0 mm 0.06 in1.5 mm
08:15 PM 63.0°F17.2°C 57.1°F13.9°C 81% 1.6 mph SSE2.6 kmh SSE 3.1 mph5.0 kmh 30.02 in1016.6 mb 0.00 in0.0 mm 0.00 in0.0 mm 0.06 in1.5 mm
08:30 PM 63.0°F17.2°C 57.1°F13.9°C 81% 0.7 mph SE1.1 kmh SE 3.8 mph6.1 kmh 30.02 in1016.6 mb 0.00 in0.0 mm 0.00 in0.0 mm 0.06 in1.5 mm
08:45 PM 63.1°F17.3°C 57.2°F14.0°C 81% 3.1 mph SE5.0 kmh SE 4.5 mph7.2 kmh 30.02 in1016.6 mb 0.00 in0.0 mm 0.00 in0.0 mm 0.06 in1.5 mm
09:00 PM 63.3°F17.4°C 57.7°F14.3°C 82% 2.2 mph S3.5 kmh S 5.4 mph8.7 kmh 30.03 in1016.9 mb 0.00 in0.0 mm 0.00 in0.0 mm 0.06 in1.5 mm
09:15 PM 63.1°F17.3°C 57.6°F14.2°C 82% 1.6 mph S2.6 kmh S 6.0 mph9.7 kmh 30.03 in1016.9 mb 0.00 in0.0 mm 0.00 in0.0 mm 0.06 in1.5 mm
09:30 PM 62.8°F17.1°C 57.2°F14.0°C 82% 4.5 mph SSE7.2 kmh SSE 6.9 mph11.1 kmh 30.02 in1016.6 mb 0.00 in0.0 mm 0.00 in0.0 mm 0.06 in1.5 mm
09:45 PM 62.8°F17.1°C 57.2°F14.0°C 82% 3.8 mph SSE6.1 kmh SSE 8.3 mph13.4 kmh 30.03 in1016.9 mb 0.00 in0.0 mm 0.00 in0.0 mm 0.06 in1.5 mm
10:00 PM 62.6°F17.0°C 57.0°F13.9°C 82% 1.6 mph SSE2.6 kmh SSE 6.0 mph9.7 kmh 30.03 in1016.9 mb 0.00 in0.0 mm 0.00 in0.0 mm 0.06 in1.5 mm
10:15 PM 62.4°F16.9°C 57.2°F14.0°C 83% 0.7 mph SSE1.1 kmh SSE 3.8 mph6.1 kmh 30.02 in1016.6 mb 0.00 in0.0 mm 0.00 in0.0 mm 0.06 in1.5 mm
10:30 PM 62.4°F16.9°C 57.2°F14.0°C 83% 1.6 mph S2.6 kmh S 5.4 mph8.7 kmh 30.03 in1016.9 mb 0.00 in0.0 mm 0.00 in0.0 mm 0.06 in1.5 mm
10:45 PM 62.1°F16.7°C 56.9°F13.8°C 83% 0.7 mph S1.1 kmh S 6.0 mph9.7 kmh 30.04 in1017.3 mb 0.00 in0.0 mm 0.00 in0.0 mm 0.06 in1.5 mm
11:00 PM 61.5°F16.4°C 57.0°F13.9°C 85% 3.1 mph S5.0 kmh S 5.4 mph8.7 kmh 30.03 in1016.9 mb 0.00 in0.0 mm 0.00 in0.0 mm 0.06 in1.5 mm
11:15 PM 61.2°F16.2°C 56.6°F13.7°C 85% 0.7 mph SSE1.1 kmh SSE 4.5 mph7.2 kmh 30.02 in1016.6 mb 0.00 in0.0 mm 0.00 in0.0 mm 0.06 in1.5 mm
11:30 PM 61.0°F16.1°C 56.1°F13.4°C 84% 1.6 mph SSE2.6 kmh SSE 3.1 mph5.0 kmh 30.02 in1016.6 mb 0.00 in0.0 mm 0.00 in0.0 mm 0.06 in1.5 mm
11:45 PM 61.3°F16.3°C 55.8°F13.2°C 82% 1.6 mph SE2.6 kmh SE 4.5 mph7.2 kmh 30.03 in1016.9 mb 0.00 in0.0 mm 0.00 in0.0 mm 0.06 in1.5 mm